Time;durP1;ratioP1;P1;durP2;ratioP2;P2;SDS_P1;SDS_P2;PMS_P1;PMS_P2;Temp;Humidity;BMP_temperature;BMP_pressure;BME280_temperature;BME280_humidity;BME280_pressure;Samples;Min_cycle;Max_cycle;Signal;HPM_P1;HPM_P2
2023/03/24 00:02:22;;;;;;;23.40;14.13;;;;;;;8.48;100.00;99504.13;4943840;28;20489;-73
2023/03/24 00:04:51;;;;;;;21.63;12.70;;;;;;;8.54;100.00;99497.25;4929628;29;20036;-73
2023/03/24 00:07:18;;;;;;;23.10;13.55;;;;;;;8.53;100.00;99496.44;4944122;28;20838;-73
2023/03/24 00:09:44;;;;;;;21.23;13.38;;;;;;;8.57;100.00;99488.91;4943497;28;20032;-73
2023/03/24 00:12:12;;;;;;;23.65;13.43;;;;;;;8.62;100.00;99487.38;4944291;28;20032;-73
2023/03/24 00:14:39;;;;;;;18.50;12.27;;;;;;;8.69;100.00;99479.50;4944034;28;20070;-73
2023/03/24 00:17:05;;;;;;;;;;;;;;;8.66;100.00;99480.69;4944204;28;20473;-73
2023/03/24 00:19:32;;;;;;;22.17;12.27;;;;;;;8.66;100.00;99472.69;4943390;28;19914;-73
2023/03/24 00:21:59;;;;;;;24.20;12.70;;;;;;;8.72;100.00;99468.47;4943405;28;20521;-73
2023/03/24 00:24:26;;;;;;;20.63;12.68;;;;;;;8.71;100.00;99471.31;4929008;29;20489;-73
2023/03/24 00:26:51;;;;;;;21.75;13.02;;;;;;;8.74;100.00;99460.31;4943583;28;20111;-73
2023/03/24 00:29:17;;;;;;;21.83;12.48;;;;;;;8.72;100.00;99455.16;4942569;28;20659;-73
2023/03/24 00:31:43;;;;;;;24.55;12.95;;;;;;;8.77;100.00;99452.78;4927302;29;20039;-73
2023/03/24 00:34:09;;;;;;;22.70;13.43;;;;;;;8.80;100.00;99449.78;4943475;28;20031;-73
2023/03/24 00:36:35;;;;;;;21.30;12.73;;;;;;;8.78;100.00;99435.81;4928679;29;20040;-73
2023/03/24 00:39:01;;;;;;;;;;;;;;;8.82;100.00;99437.09;4942250;28;20114;-73
2023/03/24 00:41:27;;;;;;;21.42;10.77;;;;;;;8.90;100.00;99438.84;4943492;28;20040;-73
2023/03/24 00:43:57;;;;;;;20.33;11.32;;;;;;;8.92;100.00;99441.31;4942840;28;20050;-73
2023/03/24 00:46:26;;;;;;;19.02;10.25;;;;;;;8.99;100.00;99435.09;4943255;28;20035;-73
2023/03/24 00:49:01;;;;;;;20.30;11.95;;;;;;;8.99;100.00;99429.78;4942907;28;20036;-73
2023/03/24 00:51:38;;;;;;;17.38;9.90;;;;;;;9.01;100.00;99430.41;4943455;28;20028;-73
2023/03/24 00:54:05;;;;;;;17.90;9.60;;;;;;;8.96;100.00;99414.16;4943671;28;20054;-76
2023/03/24 00:56:33;;;;;;;16.42;8.80;;;;;;;8.99;100.00;99418.28;4943124;28;20039;-74
2023/03/24 00:59:01;;;;;;;20.80;10.15;;;;;;;9.02;100.00;99412.59;4942684;28;20040;-73
2023/03/24 01:01:28;;;;;;;19.20;9.82;;;;;;;9.02;100.00;99404.63;4943097;28;20206;-74
2023/03/24 01:03:55;;;;;;;15.93;9.02;;;;;;;9.10;100.00;99407.16;4942985;28;20043;-74
2023/03/24 01:06:22;;;;;;;11.13;7.40;;;;;;;9.21;100.00;99398.69;4942959;28;20492;-73
2023/03/24 01:08:52;;;;;;;19.45;8.40;;;;;;;9.23;100.00;99391.34;4941974;28;20039;-74
2023/03/24 01:11:23;;;;;;;15.55;8.48;;;;;;;9.27;100.00;99378.47;4943316;28;20031;-74
2023/03/24 01:13:50;;;;;;;14.13;7.22;;;;;;;9.25;100.00;99380.53;4943091;28;20031;-74
2023/03/24 01:16:16;;;;;;;15.10;7.82;;;;;;;9.29;100.00;99374.63;4942976;28;20297;-74
2023/03/24 01:18:42;;;;;;;13.10;6.95;;;;;;;9.30;100.00;99372.78;4942847;28;20396;-74
2023/03/24 01:21:10;;;;;;;13.07;6.30;;;;;;;9.28;100.00;99378.31;4943075;28;20040;-73
2023/03/24 01:23:36;;;;;;;11.32;6.85;;;;;;;9.30;100.00;99370.13;4938474;28;20404;-74
2023/03/24 01:26:06;;;;;;;13.73;6.75;;;;;;;9.30;100.00;99370.94;4943259;28;20024;-74
2023/03/24 01:28:32;;;;;;;18.27;5.95;;;;;;;9.23;100.00;99362.06;4943247;28;20875;-73
2023/03/24 01:30:58;;;;;;;13.60;6.90;;;;;;;9.12;100.00;99373.19;4942555;28;20028;-74
2023/03/24 01:33:23;;;;;;;13.37;6.73;;;;;;;9.17;100.00;99377.97;4927932;29;20378;-74
2023/03/24 01:35:50;;;;;;;14.02;6.28;;;;;;;9.19;100.00;99384.75;4942918;28;20507;-74
2023/03/24 01:38:15;;;;;;;14.03;6.60;;;;;;;9.24;100.00;99377.00;4942821;28;20031;-74
2023/03/24 01:40:43;;;;;;;10.40;5.38;;;;;;;9.28;100.00;99372.16;4943225;28;20708;-74
2023/03/24 01:43:21;;;;;;;10.77;5.88;;;;;;;9.18;100.00;99361.81;4925220;29;20024;-74
2023/03/24 01:45:50;;;;;;;10.48;6.38;;;;;;;9.15;100.00;99375.47;4943495;28;20445;-74
2023/03/24 01:48:21;;;;;;;10.75;6.28;;;;;;;9.15;100.00;99372.00;4943031;28;20409;-75
2023/03/24 01:51:33;;;;;;;12.77;5.93;;;;;;;9.14;100.00;99376.50;4943571;28;20036;-74
2023/03/24 01:54:21;;;;;;;11.55;6.13;;;;;;;9.08;100.00;99372.75;4922727;29;20527;-75
2023/03/24 01:57:13;;;;;;;10.48;5.55;;;;;;;9.04;100.00;99374.13;4940728;28;20122;-76
2023/03/24 01:59:44;;;;;;;11.65;5.60;;;;;;;9.08;100.00;99361.25;4939109;28;20541;-76
2023/03/24 02:02:20;;;;;;;12.68;5.78;;;;;;;9.01;100.00;99365.69;4941373;28;20380;-76
2023/03/24 02:05:06;;;;;;;13.40;6.53;;;;;;;8.97;100.00;99359.91;4943035;28;20059;-76
2023/03/24 02:08:04;;;;;;;10.80;5.85;;;;;;;8.95;100.00;99366.44;4939990;28;20123;-75
2023/03/24 02:10:32;;;;;;;13.68;6.30;;;;;;;8.88;100.00;99353.03;4908524;29;20444;-75
2023/03/24 02:12:57;;;;;;;10.73;5.30;;;;;;;8.92;100.00;99345.50;4942361;28;20372;-75
2023/03/24 02:15:26;;;;;;;13.57;6.20;;;;;;;8.86;100.00;99345.22;4942257;28;20094;-75
2023/03/24 02:18:12;;;;;;;17.38;7.38;;;;;;;8.87;100.00;99338.91;4942272;28;20043;-74
2023/03/24 02:21:05;;;;;;;11.07;7.07;;;;;;;8.86;100.00;99341.75;4938560;28;20032;-74
2023/03/24 02:23:48;;;;;;;10.13;4.63;;;;;;;8.88;100.00;99337.88;4941907;28;20349;-75
2023/03/24 02:26:20;;;;;;;12.50;6.05;;;;;;;8.93;100.00;99320.53;4942068;28;20035;-75
2023/03/24 02:29:23;;;;;;;15.90;7.35;;;;;;;8.89;100.00;99322.75;4927335;29;20038;-75
2023/03/24 02:32:05;;;;;;;12.32;6.00;;;;;;;8.85;100.00;99310.84;4939130;28;20035;-75
2023/03/24 02:35:05;;;;;;;12.52;6.63;;;;;;;8.86;100.00;99305.31;4927575;29;20227;-76
2023/03/24 02:37:53;;;;;;;15.27;6.50;;;;;;;8.87;100.00;99306.97;4941939;28;20419;-76
2023/03/24 02:40:28;;;;;;;10.20;5.32;;;;;;;8.82;100.00;99298.69;4925174;29;20028;-75
2023/03/24 02:43:20;;;;;;;13.48;6.47;;;;;;;8.87;100.00;99301.66;4941951;28;20156;-75
2023/03/24 02:46:28;;;;;;;10.90;6.28;;;;;;;8.86;100.00;99284.03;4922487;29;20044;-75
2023/03/24 02:49:28;;;;;;;13.60;6.65;;;;;;;8.76;100.00;99267.53;4926716;29;20044;-75
2023/03/24 02:52:23;;;;;;;14.80;6.97;;;;;;;8.84;100.00;99283.38;4943856;28;20078;-75
2023/03/24 02:55:08;;;;;;;16.05;7.13;;;;;;;8.86;100.00;99269.88;4943174;28;20032;-76
2023/03/24 02:57:44;;;;;;;12.82;7.15;;;;;;;8.81;100.00;99257.16;4940985;28;20041;-75
2023/03/24 03:00:48;;;;;;;13.73;6.47;;;;;;;8.82;100.00;99247.31;4934625;29;20078;-74
2023/03/24 03:03:43;;;;;;;12.27;6.63;;;;;;;8.80;100.00;99230.72;4934525;29;20043;-75
2023/03/24 03:06:21;;;;;;;11.07;6.65;;;;;;;8.83;100.00;99235.69;4937844;29;20118;-76
2023/03/24 03:08:49;;;;;;;13.98;6.68;;;;;;;8.85;100.00;99228.34;4918822;29;20044;-74
2023/03/24 03:11:16;;;;;;;16.67;7.65;;;;;;;8.84;100.00;99224.81;4937073;29;20046;-75
2023/03/24 03:13:52;;;;;;;17.70;7.05;;;;;;;8.80;100.00;99215.59;4934385;29;20035;-75
2023/03/24 03:16:24;;;;;;;13.90;7.15;;;;;;;8.78;100.00;99206.97;4936484;29;20061;-75
2023/03/24 03:19:00;;;;;;;10.38;5.68;;;;;;;8.80;100.00;99196.97;4934859;29;20043;-75
2023/03/24 03:21:31;;;;;;;14.20;6.90;;;;;;;8.66;100.00;99185.34;4935242;29;20047;-75
2023/03/24 03:24:03;;;;;;;13.52;6.50;;;;;;;8.73;100.00;99181.91;4936015;29;20759;-74
2023/03/24 03:26:31;;;;;;;12.38;6.72;;;;;;;8.70;100.00;99184.97;4919359;29;20028;-75
2023/03/24 03:29:04;;;;;;;11.20;6.60;;;;;;;8.72;100.00;99181.09;4919349;29;20039;-74
2023/03/24 03:31:40;;;;;;;18.00;7.80;;;;;;;8.75;100.00;99186.03;4934178;29;20063;-75
2023/03/24 03:34:27;;;;;;;;;;;;;;;8.77;100.00;99178.69;4930786;29;20509;-75
2023/03/24 03:37:03;;;;;;;12.38;6.40;;;;;;;8.75;100.00;99171.91;4940130;28;19919;-75
2023/03/24 03:39:33;;;;;;;11.13;6.72;;;;;;;8.76;100.00;99158.44;4929420;29;20485;-75
2023/03/24 03:42:04;;;;;;;11.40;6.13;;;;;;;8.79;100.00;99155.38;4944620;28;20166;-76
2023/03/24 03:44:30;;;;;;;10.52;6.75;;;;;;;8.70;100.00;99148.53;4944619;28;20453;-75
2023/03/24 03:46:56;;;;;;;;;;;;;;;8.82;100.00;99143.53;4945300;28;20019;-76
2023/03/24 03:49:31;;;;;;;16.00;7.07;;;;;;;8.81;100.00;99120.59;4947685;28;20307;-75
2023/03/24 03:51:56;;;;;;;11.43;7.18;;;;;;;8.79;100.00;99128.78;4944075;28;20040;-75
2023/03/24 03:54:26;;;;;;;12.73;7.00;;;;;;;8.86;100.00;99121.69;4944991;28;20047;-75
2023/03/24 03:56:52;;;;;;;15.15;6.25;;;;;;;8.79;100.00;99115.47;4943761;28;20043;-76
2023/03/24 03:59:36;;;;;;;13.85;6.80;;;;;;;8.84;100.00;99110.38;4943938;28;20043;-75
2023/03/24 04:02:19;;;;;;;13.40;8.43;;;;;;;8.85;100.00;99111.25;4944336;28;20032;-75
2023/03/24 04:05:13;;;;;;;9.85;7.15;;;;;;;8.82;100.00;99096.44;4944766;28;20059;-75
2023/03/24 04:08:04;;;;;;;9.57;6.05;;;;;;;8.80;100.00;99087.88;4942099;28;20151;-74
2023/03/24 04:11:41;;;;;;;12.90;7.40;;;;;;;8.78;100.00;99083.72;4928368;29;20122;-74
2023/03/24 04:14:29;;;;;;;13.23;7.30;;;;;;;8.79;100.00;99082.72;4898464;29;20047;-74
2023/03/24 04:17:45;;;;;;;13.00;7.38;;;;;;;8.79;100.00;99075.56;4898051;29;20036;-75
2023/03/24 04:20:31;;;;;;;11.00;7.00;;;;;;;8.80;100.00;99081.69;4897608;29;20032;-74
2023/03/24 04:23:17;;;;;;;13.77;7.07;;;;;;;8.86;100.00;99076.44;4896864;29;20051;-75
2023/03/24 04:26:13;;;;;;;9.57;6.68;;;;;;;8.82;100.00;99077.00;4895258;29;20100;-75
2023/03/24 04:29:03;;;;;;;12.50;7.05;;;;;;;8.79;100.00;99069.41;4879362;29;20123;-75
2023/03/24 04:31:36;;;;;;;10.98;6.95;;;;;;;8.87;100.00;99061.28;4879536;29;20120;-75
2023/03/24 04:34:19;;;;;;;11.40;6.85;;;;;;;8.88;100.00;99057.63;4897779;29;20033;-75
2023/03/24 04:36:55;;;;;;;11.93;6.68;;;;;;;8.94;100.00;99042.72;4888883;29;20051;-75
2023/03/24 04:39:37;;;;;;;17.15;7.75;;;;;;;8.94;100.00;99040.03;4894938;29;20029;-76
2023/03/24 04:42:12;;;;;;;11.50;6.63;;;;;;;8.95;100.00;99039.03;4898250;29;21016;-74
2023/03/24 04:44:40;;;;;;;10.48;6.75;;;;;;;8.90;100.00;99026.31;4895179;29;20045;-75
2023/03/24 04:47:33;;;;;;;10.75;7.30;;;;;;;8.96;100.00;99022.03;4886596;29;20518;-75
2023/03/24 04:50:36;;;;;;;11.52;6.82;;;;;;;9.03;100.00;99026.38;4913563;28;20048;-75
2023/03/24 04:53:07;;;;;;;13.07;7.35;;;;;;;9.07;100.00;99018.84;4943132;28;20023;-76
2023/03/24 04:55:44;;;;;;;10.57;7.03;;;;;;;9.06;100.00;99006.53;4943201;28;20036;-74
2023/03/24 04:58:10;;;;;;;11.25;7.88;;;;;;;9.05;100.00;99005.72;4942906;28;20082;-74
2023/03/24 05:00:36;;;;;;;17.30;7.80;;;;;;;9.08;100.00;99002.69;4942986;28;20611;-74
2023/03/24 05:03:02;;;;;;;23.77;8.05;;;;;;;9.11;100.00;99001.47;4946529;28;20570;-74
2023/03/24 05:05:29;;;;;;;13.05;8.25;;;;;;;9.06;100.00;99001.22;4943494;28;20027;-75
2023/03/24 05:07:55;;;;;;;13.57;8.27;;;;;;;9.17;100.00;99002.53;4943168;28;20038;-74
2023/03/24 05:10:21;;;;;;;;;;;;;;;9.12;100.00;98987.13;4942841;28;20027;-75
2023/03/24 05:12:51;;;;;;;15.15;8.88;;;;;;;9.14;100.00;98986.94;4943376;28;20742;-74
2023/03/24 05:15:26;;;;;;;12.60;8.70;;;;;;;9.19;100.00;98980.00;4942323;28;20044;-75
2023/03/24 05:17:59;;;;;;;10.20;8.07;;;;;;;9.18;100.00;98974.91;4943086;28;20035;-75
2023/03/24 05:20:25;;;;;;;11.80;8.48;;;;;;;9.22;100.00;98976.94;4942678;28;20466;-75
2023/03/24 05:22:52;;;;;;;15.35;9.80;;;;;;;9.24;100.00;98966.91;4942711;28;20020;-75
2023/03/24 05:25:18;;;;;;;15.77;9.30;;;;;;;9.24;100.00;98966.09;4946317;28;20113;-74
2023/03/24 05:27:44;;;;;;;14.40;9.13;;;;;;;9.27;100.00;98961.22;4942547;28;20035;-75
2023/03/24 05:30:22;;;;;;;13.32;10.00;;;;;;;9.30;100.00;98960.00;4942604;28;20504;-75
2023/03/24 05:32:51;;;;;;;14.65;10.40;;;;;;;9.33;100.00;98958.78;4944060;28;20066;-74
2023/03/24 05:35:17;;;;;;;15.00;9.15;;;;;;;9.37;100.00;98949.38;4943747;28;20031;-75
2023/03/24 05:37:43;;;;;;;15.70;9.75;;;;;;;9.35;100.00;98962.88;4942997;28;20028;-76
2023/03/24 05:40:09;;;;;;;12.75;9.48;;;;;;;9.36;100.00;98953.03;4942605;28;20401;-76
2023/03/24 05:42:49;;;;;;;17.35;10.68;;;;;;;9.35;100.00;98959.41;4940146;28;20030;-76
2023/03/24 05:45:15;;;;;;;16.33;9.98;;;;;;;9.38;100.00;98953.69;4942533;28;20430;-75
2023/03/24 05:47:40;;;;;;;17.30;9.73;;;;;;;9.39;100.00;98957.97;4942901;28;20031;-76
2023/03/24 05:50:06;;;;;;;16.80;10.75;;;;;;;9.43;100.00;98954.72;4942042;28;20039;-75
2023/03/24 05:52:33;;;;;;;12.02;10.18;;;;;;;9.41;100.00;98950.59;4942703;28;20039;-75
2023/03/24 05:55:14;;;;;;;14.48;10.13;;;;;;;9.43;100.00;98951.22;4942157;28;20028;-75
2023/03/24 05:57:42;;;;;;;14.32;9.88;;;;;;;9.48;100.00;98948.78;4942656;28;20031;-75
2023/03/24 06:00:22;;;;;;;12.60;9.77;;;;;;;9.50;100.00;98949.41;4941722;28;20090;-75
2023/03/24 06:02:57;;;;;;;14.27;10.32;;;;;;;9.53;100.00;98946.38;4942408;28;20600;-75
2023/03/24 06:05:31;;;;;;;15.45;10.95;;;;;;;9.52;100.00;98936.72;4942194;28;20609;-75
2023/03/24 06:07:57;;;;;;;14.40;10.13;;;;;;;9.53;100.00;98927.72;4942526;28;20126;-75
2023/03/24 06:10:28;;;;;;;12.65;9.55;;;;;;;9.58;100.00;98919.94;4942002;28;20070;-75
2023/03/24 06:12:54;;;;;;;12.23;9.20;;;;;;;9.61;100.00;98918.72;4941768;28;20036;-75
2023/03/24 06:15:23;;;;;;;14.07;9.95;;;;;;;9.63;100.00;98917.50;4942556;28;20042;-75
2023/03/24 06:17:49;;;;;;;11.52;8.98;;;;;;;9.63;100.00;98909.50;4943144;28;20174;-75
2023/03/24 06:20:30;;;;;;;12.40;9.50;;;;;;;9.64;100.00;98905.81;4944690;28;20023;-75
2023/03/24 06:23:04;;;;;;;15.32;9.45;;;;;;;9.69;100.00;98914.03;4945801;28;20031;-76
2023/03/24 06:25:37;;;;;;;13.90;10.25;;;;;;;9.75;100.00;98906.25;4946905;28;20042;-75
2023/03/24 06:28:16;;;;;;;15.50;9.80;;;;;;;9.76;100.00;98905.22;4944570;28;20034;-76
2023/03/24 06:30:46;;;;;;;12.27;8.75;;;;;;;9.82;100.00;98905.22;4946479;28;20027;-75
2023/03/24 06:33:16;;;;;;;11.00;9.18;;;;;;;9.81;100.00;98897.44;4946547;28;20135;-74
2023/03/24 06:35:43;;;;;;;12.60;7.97;;;;;;;9.86;100.00;98895.00;4946272;28;20035;-75
2023/03/24 06:38:13;;;;;;;12.70;9.40;;;;;;;9.89;100.00;98883.94;4945943;28;20034;-75
2023/03/24 06:40:39;;;;;;;10.57;8.48;;;;;;;9.86;100.00;98882.50;4945724;28;20028;-75
2023/03/24 06:43:05;;;;;;;10.52;8.98;;;;;;;9.91;100.00;98892.53;4946143;28;20066;-75
2023/03/24 06:45:34;;;;;;;15.23;9.20;;;;;;;9.92;100.00;98880.84;4941771;28;20059;-76
2023/03/24 06:48:00;;;;;;;11.60;9.52;;;;;;;9.87;100.00;98885.97;4946111;28;20074;-76
2023/03/24 06:50:26;;;;;;;10.93;9.30;;;;;;;9.89;100.00;98881.25;4945765;28;20683;-75
2023/03/24 06:52:53;;;;;;;12.98;9.43;;;;;;;9.95;100.00;98891.13;4963233;28;20031;-76
2023/03/24 06:55:21;;;;;;;14.95;9.68;;;;;;;9.95;100.00;98888.47;4960469;28;20430;-76
2023/03/24 06:57:47;;;;;;;10.77;9.00;;;;;;;9.99;100.00;98897.66;4962356;28;20034;-75
2023/03/24 07:00:28;;;;;;;13.15;9.43;;;;;;;10.01;100.00;98900.94;4945479;28;20070;-75
2023/03/24 07:03:15;;;;;;;11.20;7.57;;;;;;;10.05;100.00;98906.72;4936102;28;20501;-75
2023/03/24 07:05:46;;;;;;;10.55;7.45;;;;;;;10.07;100.00;98897.47;4945939;28;20142;-74
2023/03/24 07:08:12;;;;;;;14.67;7.20;;;;;;;10.08;100.00;98888.44;4991265;23;20045;-78
2023/03/24 07:10:40;;;;;;;9.25;7.15;;;;;;;10.12;100.00;98900.34;4998344;28;20307;-78
2023/03/24 07:13:07;;;;;;;9.18;7.95;;;;;;;10.17;100.00;98902.41;5014967;28;20069;-78
2023/03/24 07:15:34;;;;;;;8.60;7.13;;;;;;;10.10;100.00;98907.72;5008118;28;20030;-78
2023/03/24 07:18:00;;;;;;;8.52;7.55;;;;;;;10.13;100.00;98920.66;5008753;28;20032;-78
2023/03/24 07:20:46;;;;;;;9.57;7.35;;;;;;;10.13;100.00;98904.63;5032067;28;20030;-79
2023/03/24 07:23:14;;;;;;;7.22;6.20;;;;;;;10.20;100.00;98895.84;5032835;28;20025;-78
2023/03/24 07:25:47;;;;;;;8.13;5.88;;;;;;;10.19;100.00;98912.88;4999335;28;20034;-78
2023/03/24 07:28:23;;;;;;;6.35;5.18;;;;;;;10.16;100.00;98924.78;5035109;28;20040;-78
2023/03/24 07:30:49;;;;;;;7.93;4.82;;;;;;;10.20;100.00;98931.31;5008251;28;20682;-77
2023/03/24 07:33:18;;;;;;;4.82;3.88;;;;;;;10.17;100.00;98941.59;4906517;28;20120;-78
2023/03/24 07:35:44;;;;;;;3.85;3.17;;;;;;;10.21;100.00;98956.13;5003762;28;20128;-77
2023/03/24 07:38:10;;;;;;;;;;;;;;;10.12;100.00;98958.19;5011245;28;20056;-78
2023/03/24 07:40:37;;;;;;;2.67;1.65;;;;;;;9.88;100.00;98951.56;5009583;28;19952;-77
2023/03/24 07:46:50;;;;;;;4.40;1.10;;;;;;;9.50;100.00;98920.94;5020673;23;20049;-78
2023/03/24 07:49:15;;;;;;;3.00;1.40;;;;;;;9.50;100.00;98922.78;4950604;28;20051;-78
2023/03/24 07:51:41;;;;;;;4.57;1.37;;;;;;;9.46;100.00;98921.56;4935713;29;20356;-79
2023/03/24 07:54:26;;;;;;;10.27;3.05;;;;;;;9.53;100.00;98906.41;4938454;28;20046;-78
2023/03/24 07:56:52;;;;;;;6.53;1.48;;;;;;;9.46;100.00;98905.56;4956537;28;20040;-77
2023/03/24 07:59:18;;;;;;;9.17;1.40;;;;;;;9.44;100.00;98899.63;4972378;28;20029;-79
2023/03/24 08:02:03;;;;;;;3.13;1.20;;;;;;;9.75;100.00;98914.25;4968815;28;20411;-79
2023/03/24 08:04:43;;;;;;;10.95;1.77;;;;;;;10.59;100.00;98923.56;4968155;28;20051;-77
2023/03/24 08:07:33;;;;;;;6.82;1.42;;;;;;;10.92;100.00;98910.97;4940032;28;20054;-77
2023/03/24 08:09:59;;;;;;;8.07;1.83;;;;;;;11.36;100.00;98882.66;4969193;28;20679;-77
2023/03/24 08:12:24;;;;;;;7.18;1.30;;;;;;;11.50;100.00;98854.03;4963367;28;20098;-77
2023/03/24 08:14:50;;;;;;;6.57;1.57;;;;;;;11.55;100.00;98826.66;4987226;28;20096;-77
2023/03/24 08:17:15;;;;;;;5.68;1.50;;;;;;;11.93;100.00;98797.19;4970130;28;20027;-77
2023/03/24 08:19:41;;;;;;;11.40;3.10;;;;;;;11.58;100.00;98719.31;4961427;28;20023;-78
2023/03/24 08:22:06;;;;;;;8.77;2.60;;;;;;;11.46;100.00;98723.72;4970084;28;20141;-78
2023/03/24 08:24:32;;;;;;;7.03;1.73;;;;;;;12.38;100.00;98766.72;4956598;28;20127;-77
2023/03/24 08:27:01;;;;;;;9.85;2.03;;;;;;;12.64;100.00;98704.88;4981799;28;20045;-77
2023/03/24 08:29:27;;;;;;;9.05;2.50;;;;;;;12.43;100.00;98601.78;4975781;28;20038;-77
2023/03/24 08:31:52;;;;;;;11.47;2.03;;;;;;;12.94;100.00;98596.91;4975626;28;20045;-77
2023/03/24 08:34:18;;;;;;;7.53;2.10;;;;;;;12.90;100.00;98504.69;4974178;28;20041;-78
2023/03/24 08:36:43;;;;;;;7.78;2.10;;;;;;;13.07;100.00;98451.25;4988546;28;20044;-77
2023/03/24 08:39:09;;;;;;;4.15;1.55;;;;;;;12.41;100.00;98346.16;4990591;28;20057;-78
2023/03/24 08:41:35;;;;;;;9.45;2.42;;;;;;;12.09;100.00;98367.06;4966799;28;20771;-77
2023/03/24 08:44:04;;;;;;;7.70;2.55;;;;;;;12.35;100.00;98472.84;4973773;28;20037;-77
2023/03/24 08:46:31;;;;;;;12.00;2.97;;;;;;;12.59;100.00;98474.50;4974305;28;20478;-78
2023/03/24 08:48:58;;;;;;;12.75;3.33;;;;;;;11.64;100.00;98328.22;4967532;28;20113;-78
2023/03/24 08:51:25;;;;;;;12.05;2.92;;;;;;;11.76;100.00;98436.00;4984466;28;20022;-78
2023/03/24 08:53:51;;;;;;;9.88;2.55;;;;;;;11.94;100.00;98428.97;4973812;28;20050;-78
2023/03/24 08:56:20;;;;;;;;;;;;;;;11.73;100.00;98415.06;4974448;28;20036;-77
2023/03/24 08:58:50;;;;;;;12.10;2.30;;;;;;;11.26;100.00;98377.47;4974757;28;19980;-77
2023/03/24 09:01:16;;;;;;;13.88;3.00;;;;;;;11.95;100.00;98497.47;4973938;28;20041;-77
2023/03/24 09:03:43;;;;;;;7.05;2.20;;;;;;;11.44;100.00;98354.41;4982182;28;20084;-78
2023/03/24 09:06:10;;;;;;;16.83;2.47;;;;;;;10.94;100.00;98310.88;4991547;28;20031;-77
2023/03/24 09:08:36;;;;;;;12.90;2.50;;;;;;;10.77;100.00;98352.56;4973193;28;20052;-76
2023/03/24 09:11:02;;;;;;;8.85;2.38;;;;;;;10.65;100.00;98405.00;4989525;28;20351;-77
2023/03/24 09:13:27;;;;;;;9.95;2.70;;;;;;;10.65;100.00;98451.22;4966357;28;20053;-77
2023/03/24 09:15:57;;;;;;;13.17;3.03;;;;;;;10.43;100.00;98450.75;4981550;28;20137;-78
2023/03/24 09:18:23;;;;;;;12.27;2.72;;;;;;;10.54;100.00;98499.94;4974934;28;20034;-77
2023/03/24 09:20:49;;;;;;;19.65;3.35;;;;;;;10.40;100.00;98522.41;4973189;28;20026;-78
2023/03/24 09:23:15;;;;;;;16.15;2.30;;;;;;;10.25;100.00;98530.66;4989445;28;20034;-77
2023/03/24 09:25:41;;;;;;;6.85;2.85;;;;;;;10.30;100.00;98555.72;4973092;28;20132;-77
2023/03/24 09:28:07;;;;;;;11.73;2.83;;;;;;;10.17;100.00;98570.94;4965170;28;20113;-77
2023/03/24 09:30:33;;;;;;;;;;;;;;;10.21;100.00;98612.13;4965244;28;20292;-77
2023/03/24 09:32:58;;;;;;;14.35;3.03;;;;;;;10.17;100.00;98653.59;4968634;28;19913;-78
2023/03/24 09:35:26;;;;;;;7.33;2.20;;;;;;;10.11;100.00;98680.06;4984835;28;20349;-77
2023/03/24 09:37:52;;;;;;;16.90;2.70;;;;;;;10.22;100.00;98739.91;4984350;28;20317;-78
2023/03/24 09:40:23;;;;;;;15.27;3.00;;;;;;;9.99;100.00;98688.91;4988831;28;20053;-78
2023/03/24 09:43:07;;;;;;;12.00;2.60;;;;;;;10.01;100.00;98742.84;4973092;28;20045;-77
2023/03/24 09:45:39;;;;;;;18.42;3.40;;;;;;;10.12;100.00;98764.34;4984556;28;20037;-78
2023/03/24 09:48:12;;;;;;;8.52;1.90;;;;;;;10.04;100.00;98671.25;4967403;28;20030;-77
2023/03/24 09:50:52;;;;;;;14.60;2.78;;;;;;;10.39;100.00;98686.16;4967355;28;20030;-77
2023/03/24 09:53:31;;;;;;;13.82;2.63;;;;;;;10.60;100.00;98619.13;4984122;28;20176;-77
2023/03/24 09:56:03;;;;;;;12.95;2.80;;;;;;;10.50;100.00;98566.25;4980601;28;20047;-77
2023/03/24 09:58:31;;;;;;;11.68;3.08;;;;;;;10.50;100.00;98533.41;4971485;28;20055;-77
2023/03/24 10:00:56;;;;;;;13.73;3.45;;;;;;;11.11;100.00;98601.31;4971512;28;20018;-78
2023/03/24 10:03:22;;;;;;;12.53;2.87;;;;;;;11.64;100.00;98534.03;4982397;28;20391;-77
2023/03/24 10:05:54;;;;;;;13.88;3.00;;;;;;;11.68;100.00;98388.19;4967698;28;20049;-78
2023/03/24 10:08:31;;;;;;;10.85;2.55;;;;;;;11.99;100.00;98362.28;4968326;28;20038;-77
2023/03/24 10:11:02;;;;;;;13.48;3.08;;;;;;;12.01;100.00;98189.88;4977330;28;20075;-77
2023/03/24 10:13:50;;;;;;;10.55;2.20;;;;;;;12.05;100.00;98118.00;4971862;28;20042;-77
2023/03/24 10:16:31;;;;;;;12.18;2.92;;;;;;;12.63;100.00;98068.81;4956798;28;20123;-76
2023/03/24 10:19:18;;;;;;;9.65;2.47;;;;;;;13.13;100.00;98012.81;4957368;28;20070;-78
2023/03/24 10:21:53;;;;;;;11.40;2.88;;;;;;;12.94;100.00;97846.25;4955040;28;20027;-77
2023/03/24 10:24:32;;;;;;;15.02;3.08;;;;;;;12.80;100.00;97803.78;4969221;28;20428;-77
2023/03/24 10:27:12;;;;;;;15.77;2.95;;;;;;;12.68;100.00;97806.56;4936871;28;20488;-76
2023/03/24 10:29:39;;;;;;;11.73;2.47;;;;;;;12.38;100.00;97720.53;4947916;28;20042;-78
2023/03/24 10:32:26;;;;;;;;;;;;;;;12.19;100.00;97833.16;4931263;28;20171;-78
2023/03/24 10:34:56;;;;;;;23.20;3.80;;;;;;;12.25;100.00;97941.06;4948421;28;19979;-78
2023/03/24 10:37:21;;;;;;;8.30;2.28;;;;;;;12.04;100.00;97812.34;4948532;28;20363;-77
2023/03/24 10:39:47;;;;;;;13.03;3.77;;;;;;;11.98;100.00;97815.19;4947263;28;20038;-77
2023/03/24 10:42:18;;;;;;;13.75;3.28;;;;;;;12.38;100.00;98025.53;4964427;28;20694;-78
2023/03/24 10:44:46;;;;;;;12.68;2.88;;;;;;;12.40;100.00;97884.31;4944998;28;20028;-78
2023/03/24 10:47:14;;;;;;;15.82;3.08;;;;;;;12.50;100.00;97943.31;4947676;28;20023;-77
2023/03/24 10:49:56;;;;;;;10.50;2.20;;;;;;;12.48;100.00;97864.34;4947184;28;20043;-77
2023/03/24 10:52:23;;;;;;;8.90;3.17;;;;;;;13.71;100.00;97957.88;4947705;28;20066;-77
2023/03/24 10:54:57;;;;;;;6.35;2.55;;;;;;;14.24;100.00;97757.72;4947546;28;20548;-78
2023/03/24 10:57:24;;;;;;;9.85;2.10;;;;;;;13.97;100.00;97728.28;4944098;28;20039;-77
2023/03/24 10:59:56;;;;;;;6.80;2.55;;;;;;;15.08;100.00;97812.41;4938417;28;20061;-78
2023/03/24 11:02:32;;;;;;;10.10;1.95;;;;;;;14.23;100.00;97380.47;4963598;28;20085;-77
2023/03/24 11:05:13;;;;;;;8.77;2.35;;;;;;;13.71;100.00;97341.28;4948362;28;20046;-76
2023/03/24 11:07:41;;;;;;;10.27;1.92;;;;;;;12.66;100.00;97261.91;4949079;28;20034;-77
2023/03/24 11:10:09;;;;;;;8.05;2.22;;;;;;;12.37;100.00;97379.19;4949244;28;20039;-76
2023/03/24 11:12:57;;;;;;;10.75;2.40;;;;;;;13.28;100.00;97897.88;4949622;28;20027;-77
2023/03/24 11:15:27;;;;;;;7.30;1.55;;;;;;;13.78;100.00;97582.31;4960439;28;20035;-77
2023/03/24 11:18:06;;;;;;;11.77;2.03;;;;;;;14.51;100.00;97654.78;4951994;28;20031;-77
2023/03/24 11:20:42;;;;;;;11.38;2.25;;;;;;;14.72;100.00;97403.28;4951724;28;20493;-77
2023/03/24 11:23:24;;;;;;;12.00;2.45;;;;;;;15.07;98.77;97154.47;4962635;28;20114;-76
2023/03/24 11:26:03;;;;;;;16.42;2.72;;;;;;;14.92;97.12;97053.31;4963067;28;20039;-77
2023/03/24 11:28:34;;;;;;;11.50;2.85;;;;;;;15.44;95.37;97088.59;4963114;28;20484;-77
2023/03/24 11:31:06;;;;;;;12.27;2.55;;;;;;;15.44;93.47;97011.47;4951502;28;20049;-76
2023/03/24 11:33:39;;;;;;;9.82;2.20;;;;;;;15.99;92.78;97127.63;4952035;28;20035;-77
2023/03/24 11:36:29;;;;;;;14.98;2.42;;;;;;;15.82;89.77;96917.47;4951563;28;20121;-77
2023/03/24 11:39:09;;;;;;;9.43;2.22;;;;;;;15.94;88.14;96826.38;4963244;28;20400;-77
2023/03/24 11:41:37;;;;;;;11.77;1.80;;;;;;;15.82;86.36;96600.13;4951638;28;20408;-77
2023/03/24 11:44:18;;;;;;;5.95;2.17;;;;;;;15.72;86.31;96699.81;4953311;28;20073;-78
2023/03/24 11:46:47;;;;;;;9.05;1.98;;;;;;;16.09;85.54;96891.81;4952375;28;20031;-77
2023/03/24 11:49:17;;;;;;;12.13;1.98;;;;;;;16.02;83.78;96717.31;4949624;28;20031;-77
2023/03/24 11:51:46;;;;;;;7.82;1.88;;;;;;;16.18;80.86;96463.03;4980531;28;20046;-78
2023/03/24 11:54:15;;;;;;;8.48;2.08;;;;;;;15.96;80.90;96463.75;4945059;28;20026;-78
2023/03/24 11:56:45;;;;;;;10.82;1.90;;;;;;;16.24;80.39;96625.16;4949239;28;20043;-78
2023/03/24 11:59:47;;;;;;;9.88;2.08;;;;;;;15.95;78.03;96340.38;4961948;28;20030;-77